sensor_id;sensor_type;location;lat;lon;timestamp;P1;durP1;ratioP1;P2;durP2;ratioP2
83190;SDS011;73087;49.924;22.080;2024-01-30T00:00:51;10.63;;;4.47;;
83190;SDS011;73087;49.924;22.080;2024-01-30T00:01:52;11.75;;;4.90;;
83190;SDS011;73087;49.924;22.080;2024-01-30T00:02:52;11.95;;;5.07;;
83190;SDS011;73087;49.924;22.080;2024-01-30T00:03:53;10.63;;;4.80;;
83190;SDS011;73087;49.924;22.080;2024-01-30T00:04:53;13.82;;;5.72;;
83190;SDS011;73087;49.924;22.080;2024-01-30T00:05:54;13.70;;;5.20;;
83190;SDS011;73087;49.924;22.080;2024-01-30T00:06:54;15.32;;;5.45;;
83190;SDS011;73087;49.924;22.080;2024-01-30T00:07:55;10.88;;;4.75;;
83190;SDS011;73087;49.924;22.080;2024-01-30T00:08:55;11.32;;;4.35;;
83190;SDS011;73087;49.924;22.080;2024-01-30T00:09:56;9.90;;;4.78;;
83190;SDS011;73087;49.924;22.080;2024-01-30T00:10:56;14.13;;;5.65;;
83190;SDS011;73087;49.924;22.080;2024-01-30T00:11:58;11.30;;;4.43;;
83190;SDS011;73087;49.924;22.080;2024-01-30T00:12:59;9.90;;;4.38;;
83190;SDS011;73087;49.924;22.080;2024-01-30T00:13:59;10.80;;;4.60;;
83190;SDS011;73087;49.924;22.080;2024-01-30T00:15:01;9.82;;;4.10;;
83190;SDS011;73087;49.924;22.080;2024-01-30T00:16:02;11.57;;;4.47;;
83190;SDS011;73087;49.924;22.080;2024-01-30T00:17:03;10.02;;;4.70;;
83190;SDS011;73087;49.924;22.080;2024-01-30T00:18:04;11.07;;;4.43;;
83190;SDS011;73087;49.924;22.080;2024-01-30T00:19:05;9.60;;;4.60;;
83190;SDS011;73087;49.924;22.080;2024-01-30T00:20:06;9.77;;;4.38;;
83190;SDS011;73087;49.924;22.080;2024-01-30T00:21:07;11.57;;;5.00;;
83190;SDS011;73087;49.924;22.080;2024-01-30T00:22:08;9.73;;;4.72;;
83190;SDS011;73087;49.924;22.080;2024-01-30T00:23:08;14.27;;;4.53;;
83190;SDS011;73087;49.924;22.080;2024-01-30T00:24:09;9.95;;;4.57;;
83190;SDS011;73087;49.924;22.080;2024-01-30T00:25:09;11.57;;;4.35;;
83190;SDS011;73087;49.924;22.080;2024-01-30T00:26:10;9.68;;;4.47;;
83190;SDS011;73087;49.924;22.080;2024-01-30T00:27:10;10.38;;;4.50;;
83190;SDS011;73087;49.924;22.080;2024-01-30T00:28:11;10.23;;;4.13;;
83190;SDS011;73087;49.924;22.080;2024-01-30T00:29:11;10.35;;;4.05;;
83190;SDS011;73087;49.924;22.080;2024-01-30T00:30:14;9.25;;;4.22;;
83190;SDS011;73087;49.924;22.080;2024-01-30T00:31:15;10.52;;;4.60;;
83190;SDS011;73087;49.924;22.080;2024-01-30T00:32:15;8.55;;;4.10;;
83190;SDS011;73087;49.924;22.080;2024-01-30T00:33:16;11.15;;;4.50;;
83190;SDS011;73087;49.924;22.080;2024-01-30T00:34:16;8.65;;;3.60;;
83190;SDS011;73087;49.924;22.080;2024-01-30T00:35:17;8.38;;;3.90;;
83190;SDS011;73087;49.924;22.080;2024-01-30T00:36:17;9.85;;;4.22;;
83190;SDS011;73087;49.924;22.080;2024-01-30T00:37:18;8.25;;;4.07;;
83190;SDS011;73087;49.924;22.080;2024-01-30T00:38:18;8.82;;;4.22;;
83190;SDS011;73087;49.924;22.080;2024-01-30T00:39:19;8.60;;;4.45;;
83190;SDS011;73087;49.924;22.080;2024-01-30T00:40:19;10.25;;;4.10;;
83190;SDS011;73087;49.924;22.080;2024-01-30T00:41:20;10.25;;;4.45;;
83190;SDS011;73087;49.924;22.080;2024-01-30T00:42:21;7.60;;;3.38;;
83190;SDS011;73087;49.924;22.080;2024-01-30T00:43:21;8.50;;;3.65;;
83190;SDS011;73087;49.924;22.080;2024-01-30T00:44:22;8.02;;;3.63;;
83190;SDS011;73087;49.924;22.080;2024-01-30T00:45:24;7.72;;;3.42;;
83190;SDS011;73087;49.924;22.080;2024-01-30T00:46:24;7.68;;;3.35;;
83190;SDS011;73087;49.924;22.080;2024-01-30T00:47:25;10.00;;;4.40;;
83190;SDS011;73087;49.924;22.080;2024-01-30T00:48:25;10.35;;;4.82;;
83190;SDS011;73087;49.924;22.080;2024-01-30T00:49:26;11.75;;;4.78;;
83190;SDS011;73087;49.924;22.080;2024-01-30T00:50:26;8.27;;;4.22;;
83190;SDS011;73087;49.924;22.080;2024-01-30T00:51:27;8.45;;;4.03;;
83190;SDS011;73087;49.924;22.080;2024-01-30T00:52:27;8.98;;;4.00;;
83190;SDS011;73087;49.924;22.080;2024-01-30T00:53:28;7.68;;;3.45;;
83190;SDS011;73087;49.924;22.080;2024-01-30T00:54:28;10.77;;;4.20;;
83190;SDS011;73087;49.924;22.080;2024-01-30T00:55:29;8.18;;;3.63;;
83190;SDS011;73087;49.924;22.080;2024-01-30T00:56:30;8.70;;;3.83;;
83190;SDS011;73087;49.924;22.080;2024-01-30T00:57:30;9.70;;;4.18;;
83190;SDS011;73087;49.924;22.080;2024-01-30T00:58:31;8.57;;;4.05;;
83190;SDS011;73087;49.924;22.080;2024-01-30T00:59:31;9.07;;;4.20;;
83190;SDS011;73087;49.924;22.080;2024-01-30T01:00:33;9.77;;;3.92;;
83190;SDS011;73087;49.924;22.080;2024-01-30T01:01:34;10.43;;;3.75;;
83190;SDS011;73087;49.924;22.080;2024-01-30T01:02:34;9.18;;;4.03;;
83190;SDS011;73087;49.924;22.080;2024-01-30T01:03:35;7.68;;;3.70;;
83190;SDS011;73087;49.924;22.080;2024-01-30T01:04:35;10.00;;;3.97;;
83190;SDS011;73087;49.924;22.080;2024-01-30T01:05:36;8.32;;;3.72;;
83190;SDS011;73087;49.924;22.080;2024-01-30T01:06:37;9.55;;;3.83;;
83190;SDS011;73087;49.924;22.080;2024-01-30T01:07:37;7.90;;;3.83;;
83190;SDS011;73087;49.924;22.080;2024-01-30T01:08:38;8.50;;;3.95;;
83190;SDS011;73087;49.924;22.080;2024-01-30T01:09:38;9.02;;;4.07;;
83190;SDS011;73087;49.924;22.080;2024-01-30T01:10:39;7.63;;;3.47;;
83190;SDS011;73087;49.924;22.080;2024-01-30T01:11:39;7.20;;;3.70;;
83190;SDS011;73087;49.924;22.080;2024-01-30T01:12:40;9.25;;;3.60;;
83190;SDS011;73087;49.924;22.080;2024-01-30T01:13:40;5.57;;;3.55;;
83190;SDS011;73087;49.924;22.080;2024-01-30T01:14:41;7.30;;;3.13;;
83190;SDS011;73087;49.924;22.080;2024-01-30T01:15:43;5.32;;;2.55;;
83190;SDS011;73087;49.924;22.080;2024-01-30T01:16:43;6.15;;;3.78;;
83190;SDS011;73087;49.924;22.080;2024-01-30T01:17:44;7.75;;;3.53;;
83190;SDS011;73087;49.924;22.080;2024-01-30T01:18:44;6.85;;;3.33;;
83190;SDS011;73087;49.924;22.080;2024-01-30T01:19:45;6.90;;;3.10;;
83190;SDS011;73087;49.924;22.080;2024-01-30T01:20:45;6.35;;;3.20;;
83190;SDS011;73087;49.924;22.080;2024-01-30T01:21:46;9.85;;;3.60;;
83190;SDS011;73087;49.924;22.080;2024-01-30T01:22:47;6.43;;;2.75;;
83190;SDS011;73087;49.924;22.080;2024-01-30T01:23:47;10.30;;;3.08;;
83190;SDS011;73087;49.924;22.080;2024-01-30T01:24:48;4.05;;;2.40;;
83190;SDS011;73087;49.924;22.080;2024-01-30T01:25:48;8.18;;;2.97;;
83190;SDS011;73087;49.924;22.080;2024-01-30T01:26:49;5.90;;;3.00;;
83190;SDS011;73087;49.924;22.080;2024-01-30T01:27:49;5.30;;;2.90;;
83190;SDS011;73087;49.924;22.080;2024-01-30T01:28:50;6.82;;;3.53;;
83190;SDS011;73087;49.924;22.080;2024-01-30T01:29:50;7.45;;;3.58;;
83190;SDS011;73087;49.924;22.080;2024-01-30T01:30:52;9.45;;;4.18;;
83190;SDS011;73087;49.924;22.080;2024-01-30T01:31:53;7.60;;;3.22;;
83190;SDS011;73087;49.924;22.080;2024-01-30T01:32:53;6.18;;;3.03;;
83190;SDS011;73087;49.924;22.080;2024-01-30T01:33:54;4.68;;;2.90;;
83190;SDS011;73087;49.924;22.080;2024-01-30T01:34:54;4.88;;;2.70;;
83190;SDS011;73087;49.924;22.080;2024-01-30T01:35:55;4.22;;;2.55;;
83190;SDS011;73087;49.924;22.080;2024-01-30T01:36:56;5.85;;;2.83;;
83190;SDS011;73087;49.924;22.080;2024-01-30T01:37:56;7.63;;;2.83;;
83190;SDS011;73087;49.924;22.080;2024-01-30T01:38:57;4.78;;;2.28;;
83190;SDS011;73087;49.924;22.080;2024-01-30T01:39:57;3.67;;;1.98;;
83190;SDS011;73087;49.924;22.080;2024-01-30T01:40:58;4.63;;;2.22;;
83190;SDS011;73087;49.924;22.080;2024-01-30T01:41:58;3.55;;;2.40;;
83190;SDS011;73087;49.924;22.080;2024-01-30T01:43:02;6.22;;;2.60;;
83190;SDS011;73087;49.924;22.080;2024-01-30T01:44:03;5.97;;;2.85;;
83190;SDS011;73087;49.924;22.080;2024-01-30T01:45:04;5.03;;;2.63;;
83190;SDS011;73087;49.924;22.080;2024-01-30T01:46:07;5.50;;;2.72;;
83190;SDS011;73087;49.924;22.080;2024-01-30T01:47:08;4.90;;;2.75;;
83190;SDS011;73087;49.924;22.080;2024-01-30T01:48:14;5.05;;;2.60;;
83190;SDS011;73087;49.924;22.080;2024-01-30T01:49:15;5.75;;;2.65;;
83190;SDS011;73087;49.924;22.080;2024-01-30T01:50:16;6.45;;;3.00;;
83190;SDS011;73087;49.924;22.080;2024-01-30T01:51:20;5.20;;;2.63;;
83190;SDS011;73087;49.924;22.080;2024-01-30T01:52:22;4.82;;;2.55;;
83190;SDS011;73087;49.924;22.080;2024-01-30T01:53:22;4.07;;;2.25;;
83190;SDS011;73087;49.924;22.080;2024-01-30T01:54:24;7.40;;;3.08;;
83190;SDS011;73087;49.924;22.080;2024-01-30T01:55:26;4.95;;;2.60;;
83190;SDS011;73087;49.924;22.080;2024-01-30T01:56:29;4.55;;;2.20;;
83190;SDS011;73087;49.924;22.080;2024-01-30T01:57:31;4.72;;;1.98;;
83190;SDS011;73087;49.924;22.080;2024-01-30T01:58:33;4.55;;;2.47;;
83190;SDS011;73087;49.924;22.080;2024-01-30T01:59:34;7.35;;;2.97;;
83190;SDS011;73087;49.924;22.080;2024-01-30T02:00:35;5.72;;;2.60;;
83190;SDS011;73087;49.924;22.080;2024-01-30T02:01:37;5.93;;;2.50;;
83190;SDS011;73087;49.924;22.080;2024-01-30T02:02:38;2.97;;;1.95;;
83190;SDS011;73087;49.924;22.080;2024-01-30T02:03:39;3.05;;;2.13;;
83190;SDS011;73087;49.924;22.080;2024-01-30T02:04:41;4.13;;;2.13;;
83190;SDS011;73087;49.924;22.080;2024-01-30T02:05:42;4.68;;;2.38;;
83190;SDS011;73087;49.924;22.080;2024-01-30T02:06:43;4.50;;;2.85;;
83190;SDS011;73087;49.924;22.080;2024-01-30T02:07:44;3.63;;;2.00;;
83190;SDS011;73087;49.924;22.080;2024-01-30T02:08:44;4.07;;;2.15;;
83190;SDS011;73087;49.924;22.080;2024-01-30T02:09:45;3.63;;;1.77;;
83190;SDS011;73087;49.924;22.080;2024-01-30T02:10:45;4.05;;;2.42;;
83190;SDS011;73087;49.924;22.080;2024-01-30T02:11:46;4.50;;;2.42;;
83190;SDS011;73087;49.924;22.080;2024-01-30T02:12:48;5.90;;;2.38;;
83190;SDS011;73087;49.924;22.080;2024-01-30T02:13:48;5.88;;;2.38;;
83190;SDS011;73087;49.924;22.080;2024-01-30T02:14:49;5.70;;;2.45;;
83190;SDS011;73087;49.924;22.080;2024-01-30T02:15:50;3.65;;;2.20;;
83190;SDS011;73087;49.924;22.080;2024-01-30T02:16:53;4.40;;;2.25;;
83190;SDS011;73087;49.924;22.080;2024-01-30T02:17:53;5.80;;;2.70;;
83190;SDS011;73087;49.924;22.080;2024-01-30T02:18:54;4.82;;;2.47;;
83190;SDS011;73087;49.924;22.080;2024-01-30T02:19:54;6.30;;;2.53;;
83190;SDS011;73087;49.924;22.080;2024-01-30T02:20:56;4.10;;;2.40;;
83190;SDS011;73087;49.924;22.080;2024-01-30T02:21:59;5.28;;;2.72;;
83190;SDS011;73087;49.924;22.080;2024-01-30T02:23:00;4.53;;;2.22;;
83190;SDS011;73087;49.924;22.080;2024-01-30T02:24:02;3.22;;;1.98;;
83190;SDS011;73087;49.924;22.080;2024-01-30T02:25:03;3.88;;;2.63;;
83190;SDS011;73087;49.924;22.080;2024-01-30T02:26:04;4.43;;;1.98;;
83190;SDS011;73087;49.924;22.080;2024-01-30T02:27:05;6.07;;;2.88;;
83190;SDS011;73087;49.924;22.080;2024-01-30T02:28:05;4.93;;;2.90;;
83190;SDS011;73087;49.924;22.080;2024-01-30T02:29:07;4.60;;;2.85;;
83190;SDS011;73087;49.924;22.080;2024-01-30T02:30:08;4.97;;;2.58;;
83190;SDS011;73087;49.924;22.080;2024-01-30T02:31:10;4.60;;;2.30;;
83190;SDS011;73087;49.924;22.080;2024-01-30T02:32:10;4.25;;;2.20;;
83190;SDS011;73087;49.924;22.080;2024-01-30T02:33:11;5.72;;;2.25;;
83190;SDS011;73087;49.924;22.080;2024-01-30T02:34:11;5.63;;;2.67;;
83190;SDS011;73087;49.924;22.080;2024-01-30T02:35:12;4.70;;;2.70;;
83190;SDS011;73087;49.924;22.080;2024-01-30T02:36:13;5.43;;;2.75;;
83190;SDS011;73087;49.924;22.080;2024-01-30T02:37:14;3.60;;;2.20;;
83190;SDS011;73087;49.924;22.080;2024-01-30T02:38:16;5.85;;;2.67;;
83190;SDS011;73087;49.924;22.080;2024-01-30T02:39:17;3.63;;;2.47;;
83190;SDS011;73087;49.924;22.080;2024-01-30T02:40:18;5.07;;;2.45;;
83190;SDS011;73087;49.924;22.080;2024-01-30T02:41:18;6.25;;;2.92;;
83190;SDS011;73087;49.924;22.080;2024-01-30T02:42:20;4.80;;;2.78;;
83190;SDS011;73087;49.924;22.080;2024-01-30T02:43:20;4.25;;;1.83;;
83190;SDS011;73087;49.924;22.080;2024-01-30T02:44:21;3.58;;;2.05;;
83190;SDS011;73087;49.924;22.080;2024-01-30T02:45:22;4.43;;;2.40;;
83190;SDS011;73087;49.924;22.080;2024-01-30T02:46:24;4.38;;;2.58;;
83190;SDS011;73087;49.924;22.080;2024-01-30T02:47:24;4.60;;;2.00;;
83190;SDS011;73087;49.924;22.080;2024-01-30T02:48:25;4.90;;;2.83;;
83190;SDS011;73087;49.924;22.080;2024-01-30T02:49:25;4.90;;;2.67;;
83190;SDS011;73087;49.924;22.080;2024-01-30T02:50:26;7.05;;;2.95;;
83190;SDS011;73087;49.924;22.080;2024-01-30T02:51:26;5.97;;;2.72;;
83190;SDS011;73087;49.924;22.080;2024-01-30T02:52:28;5.63;;;3.20;;
83190;SDS011;73087;49.924;22.080;2024-01-30T02:53:29;6.90;;;3.10;;
83190;SDS011;73087;49.924;22.080;2024-01-30T02:54:29;5.32;;;2.53;;
83190;SDS011;73087;49.924;22.080;2024-01-30T02:55:30;5.72;;;2.88;;
83190;SDS011;73087;49.924;22.080;2024-01-30T02:56:30;4.78;;;2.63;;
83190;SDS011;73087;49.924;22.080;2024-01-30T02:57:31;6.30;;;2.63;;
83190;SDS011;73087;49.924;22.080;2024-01-30T02:58:31;4.28;;;1.98;;
83190;SDS011;73087;49.924;22.080;2024-01-30T02:59:32;4.82;;;2.70;;
83190;SDS011;73087;49.924;22.080;2024-01-30T03:00:33;6.43;;;3.28;;
83190;SDS011;73087;49.924;22.080;2024-01-30T03:01:41;6.47;;;2.72;;
83190;SDS011;73087;49.924;22.080;2024-01-30T03:02:43;5.70;;;2.65;;
83190;SDS011;73087;49.924;22.080;2024-01-30T03:03:43;5.65;;;3.10;;
83190;SDS011;73087;49.924;22.080;2024-01-30T03:04:44;5.35;;;3.10;;
83190;SDS011;73087;49.924;22.080;2024-01-30T03:05:44;4.28;;;2.75;;
83190;SDS011;73087;49.924;22.080;2024-01-30T03:06:45;5.85;;;2.95;;
83190;SDS011;73087;49.924;22.080;2024-01-30T03:07:47;6.32;;;3.38;;
83190;SDS011;73087;49.924;22.080;2024-01-30T03:08:48;6.40;;;3.47;;
83190;SDS011;73087;49.924;22.080;2024-01-30T03:09:48;7.45;;;3.47;;
83190;SDS011;73087;49.924;22.080;2024-01-30T03:10:49;6.63;;;3.22;;
83190;SDS011;73087;49.924;22.080;2024-01-30T03:11:49;5.43;;;3.15;;
83190;SDS011;73087;49.924;22.080;2024-01-30T03:12:50;6.57;;;3.42;;
83190;SDS011;73087;49.924;22.080;2024-01-30T03:13:51;6.10;;;3.58;;
83190;SDS011;73087;49.924;22.080;2024-01-30T03:14:51;6.78;;;3.13;;
83190;SDS011;73087;49.924;22.080;2024-01-30T03:15:52;6.28;;;3.17;;
83190;SDS011;73087;49.924;22.080;2024-01-30T03:16:52;8.00;;;3.33;;
83190;SDS011;73087;49.924;22.080;2024-01-30T03:17:53;5.47;;;3.38;;
83190;SDS011;73087;49.924;22.080;2024-01-30T03:18:54;7.47;;;3.22;;
83190;SDS011;73087;49.924;22.080;2024-01-30T03:19:54;6.13;;;3.20;;
83190;SDS011;73087;49.924;22.080;2024-01-30T03:20:55;6.07;;;3.13;;
83190;SDS011;73087;49.924;22.080;2024-01-30T03:21:55;7.93;;;3.80;;
83190;SDS011;73087;49.924;22.080;2024-01-30T03:22:59;7.05;;;3.47;;
83190;SDS011;73087;49.924;22.080;2024-01-30T03:24:00;7.50;;;3.70;;
83190;SDS011;73087;49.924;22.080;2024-01-30T03:25:00;6.07;;;2.95;;
83190;SDS011;73087;49.924;22.080;2024-01-30T03:26:01;6.07;;;3.38;;
83190;SDS011;73087;49.924;22.080;2024-01-30T03:27:02;7.28;;;4.00;;
83190;SDS011;73087;49.924;22.080;2024-01-30T03:28:03;5.82;;;3.45;;
83190;SDS011;73087;49.924;22.080;2024-01-30T03:29:04;7.35;;;4.05;;
83190;SDS011;73087;49.924;22.080;2024-01-30T03:30:05;5.97;;;3.50;;
83190;SDS011;73087;49.924;22.080;2024-01-30T03:31:06;6.72;;;3.15;;
83190;SDS011;73087;49.924;22.080;2024-01-30T03:32:07;6.68;;;3.63;;
83190;SDS011;73087;49.924;22.080;2024-01-30T03:33:07;8.32;;;3.65;;
83190;SDS011;73087;49.924;22.080;2024-01-30T03:34:08;7.30;;;3.35;;
83190;SDS011;73087;49.924;22.080;2024-01-30T03:35:09;6.68;;;3.40;;
83190;SDS011;73087;49.924;22.080;2024-01-30T03:36:10;7.63;;;3.95;;
83190;SDS011;73087;49.924;22.080;2024-01-30T03:37:11;7.55;;;3.55;;
83190;SDS011;73087;49.924;22.080;2024-01-30T03:38:13;7.50;;;3.55;;
83190;SDS011;73087;49.924;22.080;2024-01-30T03:39:13;5.65;;;3.03;;
83190;SDS011;73087;49.924;22.080;2024-01-30T03:40:14;6.43;;;3.58;;
83190;SDS011;73087;49.924;22.080;2024-01-30T03:41:14;6.50;;;3.33;;
83190;SDS011;73087;49.924;22.080;2024-01-30T03:42:15;9.32;;;4.00;;
83190;SDS011;73087;49.924;22.080;2024-01-30T03:43:16;7.95;;;3.70;;
83190;SDS011;73087;49.924;22.080;2024-01-30T03:44:16;7.22;;;3.58;;
83190;SDS011;73087;49.924;22.080;2024-01-30T03:45:17;8.10;;;3.63;;
83190;SDS011;73087;49.924;22.080;2024-01-30T03:46:17;4.60;;;2.63;;
83190;SDS011;73087;49.924;22.080;2024-01-30T03:47:18;9.23;;;3.92;;
83190;SDS011;73087;49.924;22.080;2024-01-30T03:48:18;6.50;;;3.75;;
83190;SDS011;73087;49.924;22.080;2024-01-30T03:49:20;7.20;;;3.67;;
83190;SDS011;73087;49.924;22.080;2024-01-30T03:50:20;6.50;;;3.13;;
83190;SDS011;73087;49.924;22.080;2024-01-30T03:51:21;7.97;;;3.42;;
83190;SDS011;73087;49.924;22.080;2024-01-30T03:52:21;6.93;;;3.63;;
83190;SDS011;73087;49.924;22.080;2024-01-30T03:53:23;7.30;;;3.63;;
83190;SDS011;73087;49.924;22.080;2024-01-30T03:54:24;5.45;;;3.30;;
83190;SDS011;73087;49.924;22.080;2024-01-30T03:55:24;6.55;;;3.17;;
83190;SDS011;73087;49.924;22.080;2024-01-30T03:56:25;6.25;;;3.45;;
83190;SDS011;73087;49.924;22.080;2024-01-30T03:57:26;6.50;;;3.55;;
83190;SDS011;73087;49.924;22.080;2024-01-30T03:58:26;8.05;;;3.70;;
83190;SDS011;73087;49.924;22.080;2024-01-30T03:59:27;4.93;;;2.88;;
83190;SDS011;73087;49.924;22.080;2024-01-30T04:00:27;6.38;;;2.90;;
83190;SDS011;73087;49.924;22.080;2024-01-30T04:01:28;7.15;;;3.40;;
83190;SDS011;73087;49.924;22.080;2024-01-30T04:02:28;6.10;;;3.40;;
83190;SDS011;73087;49.924;22.080;2024-01-30T04:03:29;6.43;;;3.90;;
83190;SDS011;73087;49.924;22.080;2024-01-30T04:04:29;7.03;;;3.78;;
83190;SDS011;73087;49.924;22.080;2024-01-30T04:05:30;6.60;;;3.72;;
83190;SDS011;73087;49.924;22.080;2024-01-30T04:06:30;9.15;;;4.38;;
83190;SDS011;73087;49.924;22.080;2024-01-30T04:07:31;7.47;;;3.55;;
83190;SDS011;73087;49.924;22.080;2024-01-30T04:08:33;7.97;;;3.40;;
83190;SDS011;73087;49.924;22.080;2024-01-30T04:09:33;6.75;;;3.92;;
83190;SDS011;73087;49.924;22.080;2024-01-30T04:10:34;8.40;;;4.10;;
83190;SDS011;73087;49.924;22.080;2024-01-30T04:11:34;6.95;;;3.42;;
83190;SDS011;73087;49.924;22.080;2024-01-30T04:12:35;8.60;;;4.28;;
83190;SDS011;73087;49.924;22.080;2024-01-30T04:13:36;6.05;;;3.17;;
83190;SDS011;73087;49.924;22.080;2024-01-30T04:14:37;8.52;;;4.03;;
83190;SDS011;73087;49.924;22.080;2024-01-30T04:15:38;8.02;;;4.05;;
83190;SDS011;73087;49.924;22.080;2024-01-30T04:16:39;5.38;;;3.30;;
83190;SDS011;73087;49.924;22.080;2024-01-30T04:17:39;7.68;;;3.88;;
83190;SDS011;73087;49.924;22.080;2024-01-30T04:18:40;8.70;;;4.18;;
83190;SDS011;73087;49.924;22.080;2024-01-30T04:19:40;10.43;;;4.82;;
83190;SDS011;73087;49.924;22.080;2024-01-30T04:20:41;8.20;;;4.00;;
83190;SDS011;73087;49.924;22.080;2024-01-30T04:21:41;8.00;;;3.60;;
83190;SDS011;73087;49.924;22.080;2024-01-30T04:22:42;6.40;;;3.53;;
83190;SDS011;73087;49.924;22.080;2024-01-30T04:23:44;6.38;;;3.50;;
83190;SDS011;73087;49.924;22.080;2024-01-30T04:24:45;7.50;;;3.75;;
83190;SDS011;73087;49.924;22.080;2024-01-30T04:25:45;6.60;;;3.53;;
83190;SDS011;73087;49.924;22.080;2024-01-30T04:26:46;10.05;;;4.50;;
83190;SDS011;73087;49.924;22.080;2024-01-30T04:27:46;10.85;;;4.68;;
83190;SDS011;73087;49.924;22.080;2024-01-30T04:28:47;7.70;;;3.92;;
83190;SDS011;73087;49.924;22.080;2024-01-30T04:29:48;6.90;;;3.60;;
83190;SDS011;73087;49.924;22.080;2024-01-30T04:30:48;7.43;;;3.90;;
83190;SDS011;73087;49.924;22.080;2024-01-30T04:31:49;8.18;;;4.40;;
83190;SDS011;73087;49.924;22.080;2024-01-30T04:32:49;7.18;;;3.70;;
83190;SDS011;73087;49.924;22.080;2024-01-30T04:33:51;7.05;;;3.92;;
83190;SDS011;73087;49.924;22.080;2024-01-30T04:34:52;8.13;;;4.40;;
83190;SDS011;73087;49.924;22.080;2024-01-30T04:35:52;9.70;;;4.13;;
83190;SDS011;73087;49.924;22.080;2024-01-30T04:36:53;7.95;;;3.70;;
83190;SDS011;73087;49.924;22.080;2024-01-30T04:37:53;8.43;;;3.50;;
83190;SDS011;73087;49.924;22.080;2024-01-30T04:38:55;7.47;;;3.60;;
83190;SDS011;73087;49.924;22.080;2024-01-30T04:39:56;7.22;;;3.45;;
83190;SDS011;73087;49.924;22.080;2024-01-30T04:40:56;8.35;;;4.13;;
83190;SDS011;73087;49.924;22.080;2024-01-30T04:41:57;7.72;;;3.90;;
83190;SDS011;73087;49.924;22.080;2024-01-30T04:42:57;8.50;;;4.18;;
83190;SDS011;73087;49.924;22.080;2024-01-30T04:43:58;8.18;;;4.05;;
83190;SDS011;73087;49.924;22.080;2024-01-30T04:44:58;7.43;;;3.95;;
83190;SDS011;73087;49.924;22.080;2024-01-30T04:45:59;7.10;;;3.83;;
83190;SDS011;73087;49.924;22.080;2024-01-30T04:46:59;7.28;;;3.97;;
83190;SDS011;73087;49.924;22.080;2024-01-30T04:48:00;8.27;;;4.55;;
83190;SDS011;73087;49.924;22.080;2024-01-30T04:49:00;8.60;;;4.40;;
83190;SDS011;73087;49.924;22.080;2024-01-30T04:50:01;9.65;;;4.45;;
83190;SDS011;73087;49.924;22.080;2024-01-30T04:51:02;7.60;;;4.10;;
83190;SDS011;73087;49.924;22.080;2024-01-30T04:52:02;11.60;;;4.50;;
83190;SDS011;73087;49.924;22.080;2024-01-30T04:53:03;9.00;;;3.97;;
83190;SDS011;73087;49.924;22.080;2024-01-30T04:54:10;6.78;;;3.85;;
83190;SDS011;73087;49.924;22.080;2024-01-30T04:55:11;7.85;;;3.80;;
83190;SDS011;73087;49.924;22.080;2024-01-30T04:56:12;8.02;;;4.22;;
83190;SDS011;73087;49.924;22.080;2024-01-30T04:57:12;6.63;;;3.58;;
83190;SDS011;73087;49.924;22.080;2024-01-30T04:58:13;6.85;;;4.22;;
83190;SDS011;73087;49.924;22.080;2024-01-30T04:59:13;7.43;;;4.15;;
83190;SDS011;73087;49.924;22.080;2024-01-30T05:00:14;9.57;;;4.28;;
83190;SDS011;73087;49.924;22.080;2024-01-30T05:01:15;8.50;;;4.53;;
83190;SDS011;73087;49.924;22.080;2024-01-30T05:02:16;9.02;;;4.28;;
83190;SDS011;73087;49.924;22.080;2024-01-30T05:03:16;8.65;;;4.25;;
83190;SDS011;73087;49.924;22.080;2024-01-30T05:04:18;7.80;;;3.78;;
83190;SDS011;73087;49.924;22.080;2024-01-30T05:05:18;7.45;;;3.50;;
83190;SDS011;73087;49.924;22.080;2024-01-30T05:06:25;8.60;;;4.25;;
83190;SDS011;73087;49.924;22.080;2024-01-30T05:07:25;9.43;;;4.30;;
83190;SDS011;73087;49.924;22.080;2024-01-30T05:08:26;9.52;;;4.90;;
83190;SDS011;73087;49.924;22.080;2024-01-30T05:09:29;8.95;;;4.18;;
83190;SDS011;73087;49.924;22.080;2024-01-30T05:10:29;7.03;;;3.67;;
83190;SDS011;73087;49.924;22.080;2024-01-30T05:11:30;9.20;;;4.38;;
83190;SDS011;73087;49.924;22.080;2024-01-30T05:12:30;7.90;;;3.78;;
83190;SDS011;73087;49.924;22.080;2024-01-30T05:13:31;10.23;;;4.78;;
83190;SDS011;73087;49.924;22.080;2024-01-30T05:14:32;7.80;;;3.95;;
83190;SDS011;73087;49.924;22.080;2024-01-30T05:15:33;8.30;;;4.15;;
83190;SDS011;73087;49.924;22.080;2024-01-30T05:16:34;7.60;;;4.00;;
83190;SDS011;73087;49.924;22.080;2024-01-30T05:17:38;7.07;;;4.03;;
83190;SDS011;73087;49.924;22.080;2024-01-30T05:18:38;8.50;;;4.20;;
83190;SDS011;73087;49.924;22.080;2024-01-30T05:19:39;6.70;;;3.63;;
83190;SDS011;73087;49.924;22.080;2024-01-30T05:20:39;7.97;;;3.97;;
83190;SDS011;73087;49.924;22.080;2024-01-30T05:21:40;11.10;;;5.22;;
83190;SDS011;73087;49.924;22.080;2024-01-30T05:22:41;10.02;;;4.53;;
83190;SDS011;73087;49.924;22.080;2024-01-30T05:23:41;8.77;;;4.20;;
83190;SDS011;73087;49.924;22.080;2024-01-30T05:24:43;10.40;;;5.25;;
83190;SDS011;73087;49.924;22.080;2024-01-30T05:25:44;11.52;;;5.25;;
83190;SDS011;73087;49.924;22.080;2024-01-30T05:26:44;7.45;;;3.90;;
83190;SDS011;73087;49.924;22.080;2024-01-30T05:27:45;8.73;;;4.13;;
83190;SDS011;73087;49.924;22.080;2024-01-30T05:28:45;9.15;;;4.57;;
83190;SDS011;73087;49.924;22.080;2024-01-30T05:29:46;5.22;;;3.22;;
83190;SDS011;73087;49.924;22.080;2024-01-30T05:30:47;7.10;;;3.83;;
83190;SDS011;73087;49.924;22.080;2024-01-30T05:31:47;7.43;;;3.63;;
83190;SDS011;73087;49.924;22.080;2024-01-30T05:32:48;6.63;;;3.42;;
83190;SDS011;73087;49.924;22.080;2024-01-30T05:33:48;6.97;;;3.55;;
83190;SDS011;73087;49.924;22.080;2024-01-30T05:34:49;6.53;;;3.70;;
83190;SDS011;73087;49.924;22.080;2024-01-30T05:35:49;7.65;;;3.80;;
83190;SDS011;73087;49.924;22.080;2024-01-30T05:36:50;6.38;;;3.53;;
83190;SDS011;73087;49.924;22.080;2024-01-30T05:37:50;6.90;;;3.97;;
83190;SDS011;73087;49.924;22.080;2024-01-30T05:38:51;6.68;;;3.45;;
83190;SDS011;73087;49.924;22.080;2024-01-30T05:39:53;8.77;;;4.20;;
83190;SDS011;73087;49.924;22.080;2024-01-30T05:40:53;8.15;;;4.57;;
83190;SDS011;73087;49.924;22.080;2024-01-30T05:41:54;9.15;;;4.63;;
83190;SDS011;73087;49.924;22.080;2024-01-30T05:42:54;7.10;;;3.47;;
83190;SDS011;73087;49.924;22.080;2024-01-30T05:43:55;6.05;;;3.72;;
83190;SDS011;73087;49.924;22.080;2024-01-30T05:44:55;6.40;;;3.40;;
83190;SDS011;73087;49.924;22.080;2024-01-30T05:45:56;8.88;;;3.22;;
83190;SDS011;73087;49.924;22.080;2024-01-30T05:46:56;7.55;;;3.60;;
83190;SDS011;73087;49.924;22.080;2024-01-30T05:47:57;7.88;;;3.95;;
83190;SDS011;73087;49.924;22.080;2024-01-30T05:48:57;6.07;;;3.63;;
83190;SDS011;73087;49.924;22.080;2024-01-30T05:49:58;9.38;;;4.55;;
83190;SDS011;73087;49.924;22.080;2024-01-30T05:50:59;8.40;;;4.00;;
83190;SDS011;73087;49.924;22.080;2024-01-30T05:51:59;6.53;;;3.38;;
83190;SDS011;73087;49.924;22.080;2024-01-30T05:53:00;7.28;;;3.97;;
83190;SDS011;73087;49.924;22.080;2024-01-30T05:54:00;6.72;;;3.58;;
83190;SDS011;73087;49.924;22.080;2024-01-30T05:55:02;6.53;;;3.03;;
83190;SDS011;73087;49.924;22.080;2024-01-30T05:56:04;6.70;;;3.67;;
83190;SDS011;73087;49.924;22.080;2024-01-30T05:57:05;7.03;;;3.90;;
83190;SDS011;73087;49.924;22.080;2024-01-30T05:58:05;7.47;;;3.72;;
83190;SDS011;73087;49.924;22.080;2024-01-30T05:59:06;7.38;;;3.88;;
83190;SDS011;73087;49.924;22.080;2024-01-30T06:00:07;6.00;;;3.20;;
83190;SDS011;73087;49.924;22.080;2024-01-30T06:01:07;6.20;;;3.53;;